sensor_id;sensor_type;location;lat;lon;timestamp;temperature;humidity
52787;DHT22;38661;53.152;5.846;2022-09-27T00:00:37;10.90;88.60
52787;DHT22;38661;53.152;5.846;2022-09-27T00:03:03;10.90;89.00
52787;DHT22;38661;53.152;5.846;2022-09-27T00:05:29;10.80;88.80
52787;DHT22;38661;53.152;5.846;2022-09-27T00:07:55;10.80;88.90
52787;DHT22;38661;53.152;5.846;2022-09-27T00:10:21;10.80;89.00
52787;DHT22;38661;53.152;5.846;2022-09-27T00:12:47;10.80;89.10
52787;DHT22;38661;53.152;5.846;2022-09-27T00:15:13;10.80;89.20
52787;DHT22;38661;53.152;5.846;2022-09-27T00:17:40;10.80;89.20
52787;DHT22;38661;53.152;5.846;2022-09-27T00:20:06;10.70;89.20
52787;DHT22;38661;53.152;5.846;2022-09-27T00:22:33;10.70;89.20
52787;DHT22;38661;53.152;5.846;2022-09-27T00:24:58;10.70;89.50
52787;DHT22;38661;53.152;5.846;2022-09-27T00:27:25;10.90;88.50
52787;DHT22;38661;53.152;5.846;2022-09-27T00:29:51;10.90;88.30
52787;DHT22;38661;53.152;5.846;2022-09-27T00:32:17;10.90;88.10
52787;DHT22;38661;53.152;5.846;2022-09-27T00:34:43;10.90;88.00
52787;DHT22;38661;53.152;5.846;2022-09-27T00:37:10;10.90;87.60
52787;DHT22;38661;53.152;5.846;2022-09-27T00:39:36;10.90;86.90
52787;DHT22;38661;53.152;5.846;2022-09-27T00:42:04;11.00;86.20
52787;DHT22;38661;53.152;5.846;2022-09-27T00:52:20;10.90;85.80
52787;DHT22;38661;53.152;5.846;2022-09-27T00:54:52;10.90;86.20
52787;DHT22;38661;53.152;5.846;2022-09-27T00:57:21;10.90;86.30
52787;DHT22;38661;53.152;5.846;2022-09-27T01:00:08;10.80;86.70
52787;DHT22;38661;53.152;5.846;2022-09-27T01:02:36;10.80;86.80
52787;DHT22;38661;53.152;5.846;2022-09-27T01:05:04;10.90;86.70
52787;DHT22;38661;53.152;5.846;2022-09-27T01:07:30;10.90;86.60
52787;DHT22;38661;53.152;5.846;2022-09-27T01:09:57;11.00;86.50
52787;DHT22;38661;53.152;5.846;2022-09-27T01:15:28;11.10;86.70
52787;DHT22;38661;53.152;5.846;2022-09-27T01:21:03;11.00;87.00
52787;DHT22;38661;53.152;5.846;2022-09-27T01:29:31;11.00;86.70
52787;DHT22;38661;53.152;5.846;2022-09-27T01:35:34;11.00;86.80
52787;DHT22;38661;53.152;5.846;2022-09-27T01:43:39;10.90;87.20
52787;DHT22;38661;53.152;5.846;2022-09-27T01:46:19;10.80;87.20
52787;DHT22;38661;53.152;5.846;2022-09-27T01:48:47;10.80;87.50
52787;DHT22;38661;53.152;5.846;2022-09-27T01:51:28;10.80;87.30
52787;DHT22;38661;53.152;5.846;2022-09-27T01:54:00;10.90;86.60
52787;DHT22;38661;53.152;5.846;2022-09-27T01:56:37;11.00;86.20
52787;DHT22;38661;53.152;5.846;2022-09-27T01:59:16;11.00;86.00
52787;DHT22;38661;53.152;5.846;2022-09-27T02:01:45;11.00;85.80
52787;DHT22;38661;53.152;5.846;2022-09-27T02:04:16;11.00;86.10
52787;DHT22;38661;53.152;5.846;2022-09-27T02:06:46;11.00;86.70
52787;DHT22;38661;53.152;5.846;2022-09-27T02:09:22;10.90;86.80
52787;DHT22;38661;53.152;5.846;2022-09-27T02:12:00;10.80;87.00
52787;DHT22;38661;53.152;5.846;2022-09-27T02:15:11;10.70;87.30
52787;DHT22;38661;53.152;5.846;2022-09-27T02:20:34;10.70;87.10
52787;DHT22;38661;53.152;5.846;2022-09-27T02:28:52;10.60;86.10
52787;DHT22;38661;53.152;5.846;2022-09-27T02:31:21;10.50;85.20
52787;DHT22;38661;53.152;5.846;2022-09-27T02:33:56;10.50;85.40
52787;DHT22;38661;53.152;5.846;2022-09-27T02:36:23;10.50;85.50
52787;DHT22;38661;53.152;5.846;2022-09-27T02:38:49;10.60;84.60
52787;DHT22;38661;53.152;5.846;2022-09-27T02:41:17;10.50;85.00
52787;DHT22;38661;53.152;5.846;2022-09-27T02:43:44;10.50;85.30
52787;DHT22;38661;53.152;5.846;2022-09-27T03:02:41;10.30;87.80
52787;DHT22;38661;53.152;5.846;2022-09-27T03:05:24;10.30;87.90
52787;DHT22;38661;53.152;5.846;2022-09-27T03:07:50;10.30;87.90
52787;DHT22;38661;53.152;5.846;2022-09-27T03:10:21;10.30;88.00
52787;DHT22;38661;53.152;5.846;2022-09-27T03:12:48;10.30;88.20
52787;DHT22;38661;53.152;5.846;2022-09-27T03:15:15;10.30;88.40
52787;DHT22;38661;53.152;5.846;2022-09-27T03:17:40;10.30;88.50
52787;DHT22;38661;53.152;5.846;2022-09-27T03:20:07;10.20;88.60
52787;DHT22;38661;53.152;5.846;2022-09-27T03:22:33;10.20;88.60
52787;DHT22;38661;53.152;5.846;2022-09-27T03:25:00;10.20;88.50
52787;DHT22;38661;53.152;5.846;2022-09-27T03:27:26;10.20;88.40
52787;DHT22;38661;53.152;5.846;2022-09-27T03:29:51;10.20;88.30
52787;DHT22;38661;53.152;5.846;2022-09-27T03:32:17;10.30;88.00
52787;DHT22;38661;53.152;5.846;2022-09-27T03:34:43;10.30;87.20
52787;DHT22;38661;53.152;5.846;2022-09-27T03:37:10;10.40;86.70
52787;DHT22;38661;53.152;5.846;2022-09-27T03:39:36;10.30;86.50
52787;DHT22;38661;53.152;5.846;2022-09-27T03:42:02;10.40;86.50
52787;DHT22;38661;53.152;5.846;2022-09-27T03:44:27;10.40;86.40
52787;DHT22;38661;53.152;5.846;2022-09-27T03:46:53;10.30;86.60
52787;DHT22;38661;53.152;5.846;2022-09-27T03:49:19;10.30;86.60
52787;DHT22;38661;53.152;5.846;2022-09-27T03:51:44;10.30;86.80
52787;DHT22;38661;53.152;5.846;2022-09-27T03:54:10;10.30;86.80
52787;DHT22;38661;53.152;5.846;2022-09-27T03:56:36;10.30;86.80
52787;DHT22;38661;53.152;5.846;2022-09-27T03:59:02;10.30;86.80
52787;DHT22;38661;53.152;5.846;2022-09-27T04:01:28;10.30;86.90
52787;DHT22;38661;53.152;5.846;2022-09-27T04:03:53;10.30;87.10
52787;DHT22;38661;53.152;5.846;2022-09-27T04:06:19;10.30;86.80
52787;DHT22;38661;53.152;5.846;2022-09-27T04:08:45;10.30;86.80
52787;DHT22;38661;53.152;5.846;2022-09-27T04:11:11;10.30;86.80
52787;DHT22;38661;53.152;5.846;2022-09-27T04:13:38;10.30;86.70
52787;DHT22;38661;53.152;5.846;2022-09-27T04:16:04;10.30;86.70
52787;DHT22;38661;53.152;5.846;2022-09-27T04:18:30;10.30;86.60
52787;DHT22;38661;53.152;5.846;2022-09-27T04:20:55;10.30;86.50
52787;DHT22;38661;53.152;5.846;2022-09-27T04:23:21;10.40;86.50
52787;DHT22;38661;53.152;5.846;2022-09-27T04:25:48;10.30;86.60
52787;DHT22;38661;53.152;5.846;2022-09-27T04:28:14;10.30;86.60
52787;DHT22;38661;53.152;5.846;2022-09-27T04:30:40;10.40;86.80
52787;DHT22;38661;53.152;5.846;2022-09-27T04:33:06;10.30;86.80
52787;DHT22;38661;53.152;5.846;2022-09-27T04:35:32;10.20;87.00
52787;DHT22;38661;53.152;5.846;2022-09-27T04:38:16;10.20;87.00
52787;DHT22;38661;53.152;5.846;2022-09-27T04:40:44;10.10;87.00
52787;DHT22;38661;53.152;5.846;2022-09-27T04:43:09;10.10;87.20
52787;DHT22;38661;53.152;5.846;2022-09-27T04:45:35;10.00;87.50
52787;DHT22;38661;53.152;5.846;2022-09-27T04:48:01;10.00;87.70
52787;DHT22;38661;53.152;5.846;2022-09-27T04:50:26;9.90;87.90
52787;DHT22;38661;53.152;5.846;2022-09-27T04:52:53;9.90;88.20
52787;DHT22;38661;53.152;5.846;2022-09-27T04:55:19;9.80;88.20
52787;DHT22;38661;53.152;5.846;2022-09-27T04:57:46;9.80;88.70
52787;DHT22;38661;53.152;5.846;2022-09-27T05:00:12;9.70;88.70
52787;DHT22;38661;53.152;5.846;2022-09-27T05:02:38;9.70;88.80
52787;DHT22;38661;53.152;5.846;2022-09-27T05:05:04;9.60;88.90
52787;DHT22;38661;53.152;5.846;2022-09-27T05:07:32;9.60;88.90
52787;DHT22;38661;53.152;5.846;2022-09-27T05:09:58;9.80;89.00
52787;DHT22;38661;53.152;5.846;2022-09-27T05:12:24;9.80;88.80
52787;DHT22;38661;53.152;5.846;2022-09-27T05:14:52;9.80;88.80
52787;DHT22;38661;53.152;5.846;2022-09-27T05:17:18;9.80;88.60
52787;DHT22;38661;53.152;5.846;2022-09-27T05:19:45;9.80;88.70
52787;DHT22;38661;53.152;5.846;2022-09-27T05:22:10;9.80;88.60
52787;DHT22;38661;53.152;5.846;2022-09-27T05:24:36;9.80;88.70
52787;DHT22;38661;53.152;5.846;2022-09-27T05:27:04;9.80;88.80
52787;DHT22;38661;53.152;5.846;2022-09-27T05:29:33;9.80;88.80
52787;DHT22;38661;53.152;5.846;2022-09-27T05:32:00;9.80;88.80
52787;DHT22;38661;53.152;5.846;2022-09-27T05:34:26;9.90;88.90
52787;DHT22;38661;53.152;5.846;2022-09-27T05:36:52;9.80;88.90
52787;DHT22;38661;53.152;5.846;2022-09-27T05:39:17;9.90;88.90
52787;DHT22;38661;53.152;5.846;2022-09-27T05:41:45;9.90;89.00
52787;DHT22;38661;53.152;5.846;2022-09-27T05:44:11;9.90;89.00
52787;DHT22;38661;53.152;5.846;2022-09-27T05:46:38;9.90;89.00
52787;DHT22;38661;53.152;5.846;2022-09-27T05:49:04;9.80;89.10
52787;DHT22;38661;53.152;5.846;2022-09-27T05:51:30;9.90;89.20
52787;DHT22;38661;53.152;5.846;2022-09-27T05:53:56;9.90;89.20
52787;DHT22;38661;53.152;5.846;2022-09-27T05:56:22;9.90;89.20
52787;DHT22;38661;53.152;5.846;2022-09-27T05:58:47;10.00;89.30
52787;DHT22;38661;53.152;5.846;2022-09-27T06:01:13;10.00;89.30
52787;DHT22;38661;53.152;5.846;2022-09-27T06:03:39;10.00;89.40
52787;DHT22;38661;53.152;5.846;2022-09-27T06:06:05;10.00;89.40
52787;DHT22;38661;53.152;5.846;2022-09-27T06:08:38;9.90;89.40
52787;DHT22;38661;53.152;5.846;2022-09-27T06:11:06;9.80;89.40
52787;DHT22;38661;53.152;5.846;2022-09-27T06:13:33;9.80;89.50
52787;DHT22;38661;53.152;5.846;2022-09-27T06:16:01;9.80;89.60
52787;DHT22;38661;53.152;5.846;2022-09-27T06:18:29;9.80;89.50
52787;DHT22;38661;53.152;5.846;2022-09-27T06:20:57;9.80;89.60
52787;DHT22;38661;53.152;5.846;2022-09-27T06:23:23;9.70;89.80
52787;DHT22;38661;53.152;5.846;2022-09-27T06:25:50;9.70;90.00
52787;DHT22;38661;53.152;5.846;2022-09-27T06:28:16;9.70;89.90
52787;DHT22;38661;53.152;5.846;2022-09-27T06:30:47;9.80;90.00
52787;DHT22;38661;53.152;5.846;2022-09-27T06:33:15;9.90;90.00
52787;DHT22;38661;53.152;5.846;2022-09-27T06:35:42;9.90;90.10
52787;DHT22;38661;53.152;5.846;2022-09-27T06:38:14;10.00;90.00
52787;DHT22;38661;53.152;5.846;2022-09-27T06:40:41;10.10;89.90
52787;DHT22;38661;53.152;5.846;2022-09-27T06:43:12;10.00;89.90
52787;DHT22;38661;53.152;5.846;2022-09-27T06:45:38;10.10;89.90
52787;DHT22;38661;53.152;5.846;2022-09-27T06:48:05;10.10;89.80
52787;DHT22;38661;53.152;5.846;2022-09-27T06:50:40;10.20;90.00
52787;DHT22;38661;53.152;5.846;2022-09-27T06:53:07;10.30;89.80
52787;DHT22;38661;53.152;5.846;2022-09-27T06:55:37;10.20;89.80
52787;DHT22;38661;53.152;5.846;2022-09-27T06:58:04;10.30;90.10
52787;DHT22;38661;53.152;5.846;2022-09-27T07:00:52;10.30;89.80
52787;DHT22;38661;53.152;5.846;2022-09-27T07:03:18;10.40;89.70
52787;DHT22;38661;53.152;5.846;2022-09-27T07:05:54;10.40;89.80
52787;DHT22;38661;53.152;5.846;2022-09-27T07:08:20;10.40;89.80
52787;DHT22;38661;53.152;5.846;2022-09-27T07:10:46;10.50;89.80
52787;DHT22;38661;53.152;5.846;2022-09-27T07:13:11;10.50;90.00
52787;DHT22;38661;53.152;5.846;2022-09-27T07:15:40;10.50;90.30
52787;DHT22;38661;53.152;5.846;2022-09-27T07:18:06;10.50;90.30
52787;DHT22;38661;53.152;5.846;2022-09-27T07:20:33;10.50;90.00
52787;DHT22;38661;53.152;5.846;2022-09-27T07:23:02;10.50;89.90
52787;DHT22;38661;53.152;5.846;2022-09-27T07:25:29;10.50;89.80
52787;DHT22;38661;53.152;5.846;2022-09-27T07:28:03;10.50;89.80
52787;DHT22;38661;53.152;5.846;2022-09-27T07:30:29;10.60;89.40
52787;DHT22;38661;53.152;5.846;2022-09-27T07:33:00;10.60;89.00
52787;DHT22;38661;53.152;5.846;2022-09-27T07:35:26;10.60;88.90
52787;DHT22;38661;53.152;5.846;2022-09-27T07:37:52;10.60;88.80
52787;DHT22;38661;53.152;5.846;2022-09-27T07:40:19;10.80;88.70
52787;DHT22;38661;53.152;5.846;2022-09-27T07:42:45;10.80;88.60
52787;DHT22;38661;53.152;5.846;2022-09-27T07:45:11;10.90;88.50
52787;DHT22;38661;53.152;5.846;2022-09-27T07:47:38;11.00;88.60
52787;DHT22;38661;53.152;5.846;2022-09-27T07:50:05;11.00;88.50
52787;DHT22;38661;53.152;5.846;2022-09-27T07:52:38;11.00;88.30
52787;DHT22;38661;53.152;5.846;2022-09-27T07:55:04;11.20;87.60
52787;DHT22;38661;53.152;5.846;2022-09-27T07:57:30;11.30;86.70
52787;DHT22;38661;53.152;5.846;2022-09-27T07:59:56;11.50;85.90
52787;DHT22;38661;53.152;5.846;2022-09-27T08:02:22;11.50;85.10
52787;DHT22;38661;53.152;5.846;2022-09-27T08:04:48;11.50;84.40
52787;DHT22;38661;53.152;5.846;2022-09-27T08:07:14;11.50;84.70
52787;DHT22;38661;53.152;5.846;2022-09-27T08:09:40;11.40;84.90
52787;DHT22;38661;53.152;5.846;2022-09-27T08:12:06;11.50;84.90
52787;DHT22;38661;53.152;5.846;2022-09-27T08:14:33;11.50;85.10
52787;DHT22;38661;53.152;5.846;2022-09-27T08:16:59;11.50;85.00
52787;DHT22;38661;53.152;5.846;2022-09-27T08:19:25;11.50;84.80
52787;DHT22;38661;53.152;5.846;2022-09-27T08:21:51;11.50;84.60
52787;DHT22;38661;53.152;5.846;2022-09-27T08:24:20;11.50;84.80
52787;DHT22;38661;53.152;5.846;2022-09-27T08:26:45;11.50;84.80
52787;DHT22;38661;53.152;5.846;2022-09-27T08:29:11;11.50;84.80
52787;DHT22;38661;53.152;5.846;2022-09-27T08:31:37;11.50;85.00
52787;DHT22;38661;53.152;5.846;2022-09-27T08:34:03;11.50;85.20
52787;DHT22;38661;53.152;5.846;2022-09-27T08:36:29;11.50;85.00
52787;DHT22;38661;53.152;5.846;2022-09-27T08:38:56;11.50;85.30
52787;DHT22;38661;53.152;5.846;2022-09-27T08:41:46;11.50;85.50
52787;DHT22;38661;53.152;5.846;2022-09-27T08:47:26;11.70;86.10
52787;DHT22;38661;53.152;5.846;2022-09-27T08:50:24;11.70;86.00
52787;DHT22;38661;53.152;5.846;2022-09-27T08:53:32;11.70;86.10
52787;DHT22;38661;53.152;5.846;2022-09-27T08:55:59;11.80;86.60
52787;DHT22;38661;53.152;5.846;2022-09-27T08:58:43;11.80;86.30
52787;DHT22;38661;53.152;5.846;2022-09-27T09:01:15;11.70;85.60
52787;DHT22;38661;53.152;5.846;2022-09-27T09:03:51;11.60;85.20
52787;DHT22;38661;53.152;5.846;2022-09-27T09:12:02;11.60;86.10
52787;DHT22;38661;53.152;5.846;2022-09-27T09:15:02;11.60;86.40
52787;DHT22;38661;53.152;5.846;2022-09-27T09:26:24;11.90;86.90
52787;DHT22;38661;53.152;5.846;2022-09-27T09:31:45;12.10;86.60
52787;DHT22;38661;53.152;5.846;2022-09-27T09:34:28;12.20;86.00
52787;DHT22;38661;53.152;5.846;2022-09-27T09:37:18;12.30;86.00
52787;DHT22;38661;53.152;5.846;2022-09-27T09:39:56;12.40;85.60
52787;DHT22;38661;53.152;5.846;2022-09-27T09:42:25;12.40;85.50
52787;DHT22;38661;53.152;5.846;2022-09-27T09:45:05;12.40;84.90
52787;DHT22;38661;53.152;5.846;2022-09-27T09:47:50;12.40;84.10
52787;DHT22;38661;53.152;5.846;2022-09-27T09:50:30;12.30;82.40
52787;DHT22;38661;53.152;5.846;2022-09-27T09:53:39;12.10;82.80
52787;DHT22;38661;53.152;5.846;2022-09-27T09:56:28;11.90;83.20
52787;DHT22;38661;53.152;5.846;2022-09-27T09:59:00;11.70;84.20
52787;DHT22;38661;53.152;5.846;2022-09-27T10:01:40;11.50;84.80
52787;DHT22;38661;53.152;5.846;2022-09-27T10:04:18;11.40;85.70
52787;DHT22;38661;53.152;5.846;2022-09-27T10:06:45;11.30;86.20
52787;DHT22;38661;53.152;5.846;2022-09-27T10:09:14;11.20;87.00
52787;DHT22;38661;53.152;5.846;2022-09-27T10:11:42;11.20;87.20
52787;DHT22;38661;53.152;5.846;2022-09-27T10:14:12;11.20;87.50
52787;DHT22;38661;53.152;5.846;2022-09-27T10:16:39;11.30;87.70
52787;DHT22;38661;53.152;5.846;2022-09-27T10:19:08;11.40;87.50
52787;DHT22;38661;53.152;5.846;2022-09-27T10:21:39;11.50;87.90
52787;DHT22;38661;53.152;5.846;2022-09-27T10:24:14;11.60;87.60
52787;DHT22;38661;53.152;5.846;2022-09-27T10:26:43;11.80;87.50
52787;DHT22;38661;53.152;5.846;2022-09-27T10:29:32;12.00;87.10
52787;DHT22;38661;53.152;5.846;2022-09-27T10:32:00;12.10;86.40
52787;DHT22;38661;53.152;5.846;2022-09-27T10:37:13;12.30;85.50
52787;DHT22;38661;53.152;5.846;2022-09-27T10:39:46;12.50;84.60
52787;DHT22;38661;53.152;5.846;2022-09-27T10:42:34;12.50;83.60
52787;DHT22;38661;53.152;5.846;2022-09-27T10:45:29;12.70;83.30
52787;DHT22;38661;53.152;5.846;2022-09-27T10:47:56;12.70;83.00
52787;DHT22;38661;53.152;5.846;2022-09-27T10:50:28;12.60;83.00
52787;DHT22;38661;53.152;5.846;2022-09-27T10:53:20;12.60;83.00
52787;DHT22;38661;53.152;5.846;2022-09-27T10:55:48;12.50;82.90
52787;DHT22;38661;53.152;5.846;2022-09-27T10:58:28;12.50;82.90
52787;DHT22;38661;53.152;5.846;2022-09-27T11:01:03;12.40;82.80
52787;DHT22;38661;53.152;5.846;2022-09-27T11:03:32;12.40;82.60
52787;DHT22;38661;53.152;5.846;2022-09-27T11:06:38;12.40;82.50
52787;DHT22;38661;53.152;5.846;2022-09-27T11:09:22;12.40;82.30
52787;DHT22;38661;53.152;5.846;2022-09-27T11:12:13;12.50;82.00
52787;DHT22;38661;53.152;5.846;2022-09-27T11:14:39;12.50;82.20
52787;DHT22;38661;53.152;5.846;2022-09-27T11:17:16;12.70;82.10
52787;DHT22;38661;53.152;5.846;2022-09-27T11:19:57;12.80;82.10
52787;DHT22;38661;53.152;5.846;2022-09-27T11:28:02;13.10;82.60
52787;DHT22;38661;53.152;5.846;2022-09-27T11:31:01;13.00;83.00
52787;DHT22;38661;53.152;5.846;2022-09-27T11:33:33;13.00;83.20
52787;DHT22;38661;53.152;5.846;2022-09-27T11:39:24;12.90;83.20
52787;DHT22;38661;53.152;5.846;2022-09-27T11:44:57;13.10;81.50
52787;DHT22;38661;53.152;5.846;2022-09-27T11:53:42;13.70;78.40
52787;DHT22;38661;53.152;5.846;2022-09-27T11:56:22;13.90;77.60
52787;DHT22;38661;53.152;5.846;2022-09-27T12:09:27;14.50;73.80
52787;DHT22;38661;53.152;5.846;2022-09-27T12:12:12;14.50;73.10
52787;DHT22;38661;53.152;5.846;2022-09-27T12:14:43;14.50;73.90
52787;DHT22;38661;53.152;5.846;2022-09-27T12:17:14;14.30;74.10
52787;DHT22;38661;53.152;5.846;2022-09-27T12:19:45;14.10;74.10
52787;DHT22;38661;53.152;5.846;2022-09-27T12:22:25;14.00;75.10
52787;DHT22;38661;53.152;5.846;2022-09-27T12:24:52;13.50;75.60
52787;DHT22;38661;53.152;5.846;2022-09-27T12:27:39;13.10;77.40
52787;DHT22;38661;53.152;5.846;2022-09-27T12:30:05;12.90;78.40
52787;DHT22;38661;53.152;5.846;2022-09-27T12:35:22;12.80;79.30
52787;DHT22;38661;53.152;5.846;2022-09-27T12:40:39;12.90;79.50
52787;DHT22;38661;53.152;5.846;2022-09-27T12:43:26;12.90;79.20
52787;DHT22;38661;53.152;5.846;2022-09-27T12:51:10;12.50;80.00
52787;DHT22;38661;53.152;5.846;2022-09-27T12:56:59;12.00;81.60
52787;DHT22;38661;53.152;5.846;2022-09-27T13:08:26;11.40;82.90
52787;DHT22;38661;53.152;5.846;2022-09-27T13:14:00;11.40;84.20
52787;DHT22;38661;53.152;5.846;2022-09-27T13:16:27;11.40;84.70
52787;DHT22;38661;53.152;5.846;2022-09-27T13:18:59;11.50;85.30
52787;DHT22;38661;53.152;5.846;2022-09-27T13:32:32;12.00;84.60
52787;DHT22;38661;53.152;5.846;2022-09-27T13:35:18;12.00;84.70
52787;DHT22;38661;53.152;5.846;2022-09-27T13:37:53;12.00;84.50
52787;DHT22;38661;53.152;5.846;2022-09-27T13:40:27;12.20;84.30
52787;DHT22;38661;53.152;5.846;2022-09-27T13:45:50;12.20;83.20
52787;DHT22;38661;53.152;5.846;2022-09-27T13:51:15;12.20;82.80
52787;DHT22;38661;53.152;5.846;2022-09-27T13:53:56;12.30;82.20
52787;DHT22;38661;53.152;5.846;2022-09-27T14:02:12;12.60;81.20
52787;DHT22;38661;53.152;5.846;2022-09-27T14:04:46;13.00;80.90
52787;DHT22;38661;53.152;5.846;2022-09-27T14:07:17;13.20;80.50
52787;DHT22;38661;53.152;5.846;2022-09-27T14:09:51;13.30;78.90
52787;DHT22;38661;53.152;5.846;2022-09-27T14:12:30;13.40;78.40
52787;DHT22;38661;53.152;5.846;2022-09-27T14:14:57;13.50;78.50
52787;DHT22;38661;53.152;5.846;2022-09-27T14:17:23;13.50;77.50
52787;DHT22;38661;53.152;5.846;2022-09-27T14:19:50;13.40;76.90
52787;DHT22;38661;53.152;5.846;2022-09-27T14:22:20;13.40;74.80
52787;DHT22;38661;53.152;5.846;2022-09-27T14:24:51;13.30;75.10
52787;DHT22;38661;53.152;5.846;2022-09-27T14:29:58;13.10;74.70
52787;DHT22;38661;53.152;5.846;2022-09-27T14:32:31;13.00;74.80
52787;DHT22;38661;53.152;5.846;2022-09-27T14:35:18;12.90;75.60
52787;DHT22;38661;53.152;5.846;2022-09-27T14:38:07;12.80;75.80
52787;DHT22;38661;53.152;5.846;2022-09-27T14:41:02;12.80;76.00
52787;DHT22;38661;53.152;5.846;2022-09-27T14:43:28;12.70;76.60
52787;DHT22;38661;53.152;5.846;2022-09-27T14:46:00;12.80;77.00
52787;DHT22;38661;53.152;5.846;2022-09-27T14:48:31;12.70;77.40
52787;DHT22;38661;53.152;5.846;2022-09-27T14:51:19;12.80;77.60
52787;DHT22;38661;53.152;5.846;2022-09-27T14:53:50;12.70;77.80
52787;DHT22;38661;53.152;5.846;2022-09-27T14:56:24;12.70;78.10
52787;DHT22;38661;53.152;5.846;2022-09-27T14:58:57;12.70;78.50
52787;DHT22;38661;53.152;5.846;2022-09-27T15:01:27;12.60;78.50
52787;DHT22;38661;53.152;5.846;2022-09-27T15:03:55;12.50;78.80
52787;DHT22;38661;53.152;5.846;2022-09-27T15:06:21;12.50;79.20
52787;DHT22;38661;53.152;5.846;2022-09-27T15:08:49;12.40;79.70
52787;DHT22;38661;53.152;5.846;2022-09-27T15:11:17;12.40;79.70
52787;DHT22;38661;53.152;5.846;2022-09-27T15:13:44;12.40;80.30
52787;DHT22;38661;53.152;5.846;2022-09-27T15:16:21;12.40;81.10
52787;DHT22;38661;53.152;5.846;2022-09-27T15:18:57;12.30;81.20
52787;DHT22;38661;53.152;5.846;2022-09-27T15:21:35;12.30;81.20
52787;DHT22;38661;53.152;5.846;2022-09-27T15:24:02;12.30;81.20
52787;DHT22;38661;53.152;5.846;2022-09-27T15:26:41;12.30;81.30
52787;DHT22;38661;53.152;5.846;2022-09-27T15:29:24;12.30;81.70
52787;DHT22;38661;53.152;5.846;2022-09-27T15:32:05;12.20;80.50
52787;DHT22;38661;53.152;5.846;2022-09-27T15:34:32;12.00;80.50
52787;DHT22;38661;53.152;5.846;2022-09-27T15:37:00;11.90;80.80
52787;DHT22;38661;53.152;5.846;2022-09-27T15:39:38;11.80;80.80
52787;DHT22;38661;53.152;5.846;2022-09-27T15:42:07;11.60;80.20
52787;DHT22;38661;53.152;5.846;2022-09-27T15:44:54;11.50;80.80
52787;DHT22;38661;53.152;5.846;2022-09-27T15:52:53;11.00;81.90
52787;DHT22;38661;53.152;5.846;2022-09-27T15:55:25;10.80;82.30
52787;DHT22;38661;53.152;5.846;2022-09-27T15:58:04;10.80;82.40
52787;DHT22;38661;53.152;5.846;2022-09-27T16:00:33;10.60;82.40
52787;DHT22;38661;53.152;5.846;2022-09-27T16:03:00;10.60;82.10
52787;DHT22;38661;53.152;5.846;2022-09-27T16:05:26;10.50;82.30
52787;DHT22;38661;53.152;5.846;2022-09-27T16:07:53;10.40;82.50
52787;DHT22;38661;53.152;5.846;2022-09-27T16:10:25;10.30;82.70
52787;DHT22;38661;53.152;5.846;2022-09-27T16:12:51;10.20;82.80
52787;DHT22;38661;53.152;5.846;2022-09-27T16:15:17;10.10;83.00
52787;DHT22;38661;53.152;5.846;2022-09-27T16:17:43;10.10;83.00
52787;DHT22;38661;53.152;5.846;2022-09-27T16:20:21;10.10;83.30
52787;DHT22;38661;53.152;5.846;2022-09-27T16:22:49;10.20;83.20
52787;DHT22;38661;53.152;5.846;2022-09-27T16:25:16;10.20;83.00
52787;DHT22;38661;53.152;5.846;2022-09-27T16:27:41;10.20;82.80
52787;DHT22;38661;53.152;5.846;2022-09-27T16:30:08;10.30;82.90
52787;DHT22;38661;53.152;5.846;2022-09-27T16:32:38;10.30;82.80
52787;DHT22;38661;53.152;5.846;2022-09-27T16:35:04;10.30;83.10
52787;DHT22;38661;53.152;5.846;2022-09-27T16:37:30;10.40;83.30
52787;DHT22;38661;53.152;5.846;2022-09-27T16:39:56;10.30;83.40
52787;DHT22;38661;53.152;5.846;2022-09-27T16:42:21;10.30;83.60
52787;DHT22;38661;53.152;5.846;2022-09-27T16:44:47;10.30;84.10
52787;DHT22;38661;53.152;5.846;2022-09-27T16:47:15;10.20;84.20
52787;DHT22;38661;53.152;5.846;2022-09-27T16:49:40;10.20;84.00
52787;DHT22;38661;53.152;5.846;2022-09-27T16:52:24;10.20;84.40
52787;DHT22;38661;53.152;5.846;2022-09-27T16:54:50;10.20;84.10
52787;DHT22;38661;53.152;5.846;2022-09-27T16:57:16;10.10;84.10
52787;DHT22;38661;53.152;5.846;2022-09-27T16:59:41;10.00;84.10
52787;DHT22;38661;53.152;5.846;2022-09-27T17:02:08;10.00;84.00
52787;DHT22;38661;53.152;5.846;2022-09-27T17:04:34;10.00;84.20
52787;DHT22;38661;53.152;5.846;2022-09-27T17:07:00;10.00;84.70
52787;DHT22;38661;53.152;5.846;2022-09-27T17:09:25;10.00;84.30
52787;DHT22;38661;53.152;5.846;2022-09-27T17:11:51;10.00;84.30
52787;DHT22;38661;53.152;5.846;2022-09-27T17:14:17;10.10;84.10
52787;DHT22;38661;53.152;5.846;2022-09-27T17:16:44;10.00;83.90
52787;DHT22;38661;53.152;5.846;2022-09-27T17:19:11;10.00;84.20
52787;DHT22;38661;53.152;5.846;2022-09-27T17:21:37;9.90;84.10
52787;DHT22;38661;53.152;5.846;2022-09-27T17:24:03;9.90;84.40
52787;DHT22;38661;53.152;5.846;2022-09-27T17:26:29;9.90;84.60
52787;DHT22;38661;53.152;5.846;2022-09-27T17:28:57;10.00;84.70
52787;DHT22;38661;53.152;5.846;2022-09-27T17:31:27;9.90;84.60
52787;DHT22;38661;53.152;5.846;2022-09-27T17:33:53;9.90;84.90
52787;DHT22;38661;53.152;5.846;2022-09-27T17:36:22;9.90;84.90
52787;DHT22;38661;53.152;5.846;2022-09-27T17:38:50;9.90;85.10
52787;DHT22;38661;53.152;5.846;2022-09-27T17:41:18;9.90;85.30
52787;DHT22;38661;53.152;5.846;2022-09-27T17:43:45;9.90;85.30
52787;DHT22;38661;53.152;5.846;2022-09-27T17:46:19;9.90;85.50
52787;DHT22;38661;53.152;5.846;2022-09-27T17:48:46;9.90;85.60
52787;DHT22;38661;53.152;5.846;2022-09-27T17:51:31;9.80;85.60
52787;DHT22;38661;53.152;5.846;2022-09-27T17:53:57;9.90;85.70
52787;DHT22;38661;53.152;5.846;2022-09-27T17:56:23;9.80;85.80
52787;DHT22;38661;53.152;5.846;2022-09-27T17:58:50;9.80;85.90
52787;DHT22;38661;53.152;5.846;2022-09-27T18:01:18;9.80;86.20
52787;DHT22;38661;53.152;5.846;2022-09-27T18:03:45;9.70;86.40
52787;DHT22;38661;53.152;5.846;2022-09-27T18:06:12;9.70;86.30
52787;DHT22;38661;53.152;5.846;2022-09-27T18:08:39;9.60;86.50
52787;DHT22;38661;53.152;5.846;2022-09-27T18:11:14;9.60;87.10
52787;DHT22;38661;53.152;5.846;2022-09-27T18:13:41;9.60;87.30
52787;DHT22;38661;53.152;5.846;2022-09-27T18:16:08;9.60;87.50
52787;DHT22;38661;53.152;5.846;2022-09-27T18:18:36;9.60;87.30
52787;DHT22;38661;53.152;5.846;2022-09-27T18:21:10;9.60;87.00
52787;DHT22;38661;53.152;5.846;2022-09-27T18:23:38;9.50;87.30
52787;DHT22;38661;53.152;5.846;2022-09-27T18:26:05;9.50;87.60
52787;DHT22;38661;53.152;5.846;2022-09-27T18:28:40;9.50;87.30
52787;DHT22;38661;53.152;5.846;2022-09-27T18:31:09;9.50;87.40
52787;DHT22;38661;53.152;5.846;2022-09-27T18:33:35;9.40;87.40
52787;DHT22;38661;53.152;5.846;2022-09-27T18:36:10;9.40;87.70